createdAt,value
2019-01-15T00:01:43.261Z,95.38
2019-01-15T00:04:12.333Z,94.96
2019-01-15T00:06:41.430Z,95.48
2019-01-15T00:09:10.517Z,95.42
2019-01-15T00:11:39.609Z,95.10
2019-01-15T00:14:08.697Z,94.59
2019-01-15T00:16:37.790Z,94.84
2019-01-15T00:19:06.861Z,94.96
2019-01-15T00:21:35.957Z,94.81
2019-01-15T00:24:05.021Z,94.36
2019-01-15T00:26:34.114Z,94.53
2019-01-15T00:29:03.177Z,95.30
2019-01-15T00:31:32.268Z,94.93
2019-01-15T00:34:01.366Z,95.67
2019-01-15T00:36:30.457Z,95.41
2019-01-15T00:38:59.548Z,95.56
2019-01-15T00:41:28.652Z,95.71
2019-01-15T00:43:57.722Z,95.64
2019-01-15T00:46:26.828Z,95.60
2019-01-15T00:48:55.908Z,95.22
2019-01-15T00:51:24.992Z,95.27
2019-01-15T00:53:54.073Z,95.62
2019-01-15T00:56:23.170Z,94.98
2019-01-15T00:58:52.250Z,95.21
2019-01-15T01:01:21.342Z,95.48
2019-01-15T01:03:50.436Z,95.12
2019-01-15T01:06:19.525Z,94.96
2019-01-15T01:08:48.601Z,95.41
2019-01-15T01:11:17.702Z,95.11
2019-01-15T01:13:46.786Z,94.93
2019-01-15T01:16:15.901Z,95.24
2019-01-15T01:18:44.981Z,95.04
2019-01-15T01:21:14.081Z,95.24
2019-01-15T01:23:43.163Z,94.81
2019-01-15T01:26:12.233Z,95.28
2019-01-15T01:28:41.337Z,95.65
2019-01-15T01:31:10.425Z,95.73
2019-01-15T01:33:39.522Z,95.37
2019-01-15T01:36:08.636Z,95.18
2019-01-15T01:38:37.744Z,95.28
2019-01-15T01:41:06.826Z,94.66
2019-01-15T01:43:35.926Z,94.50
2019-01-15T01:46:05.010Z,94.31
2019-01-15T01:48:34.106Z,93.64
2019-01-15T01:51:03.210Z,94.27
2019-01-15T01:53:32.301Z,94.23
2019-01-15T01:56:01.379Z,94.70
2019-01-15T01:58:30.478Z,95.28
2019-01-15T02:00:59.551Z,95.64
2019-01-15T02:03:28.632Z,96.30
2019-01-15T02:05:57.691Z,96.53
2019-01-15T02:08:26.780Z,96.97
2019-01-15T02:10:55.840Z,96.98
2019-01-15T02:13:24.961Z,96.91
2019-01-15T02:15:54.030Z,97.04
2019-01-15T02:18:23.112Z,97.22
2019-01-15T02:20:52.179Z,97.21
2019-01-15T02:23:21.273Z,97.48
2019-01-15T02:25:50.340Z,97.35
2019-01-15T02:28:19.437Z,97.32
2019-01-15T02:30:48.587Z,97.39
2019-01-15T02:33:17.680Z,97.34
2019-01-15T02:35:46.760Z,97.33
2019-01-15T02:38:15.848Z,97.51
2019-01-15T02:40:44.910Z,97.22
2019-01-15T02:43:14.002Z,97.26
2019-01-15T02:45:43.075Z,97.81
2019-01-15T02:48:12.171Z,98.45
2019-01-15T02:50:41.233Z,99.08
2019-01-15T02:53:10.332Z,99.67
2019-01-15T02:55:39.406Z,99.90
2019-01-15T02:58:08.483Z,100.00
2019-01-15T03:00:37.570Z,100.00
2019-01-15T03:03:06.642Z,100.00
2019-01-15T03:05:35.749Z,100.00
2019-01-15T03:08:04.947Z,100.00
2019-01-15T03:10:34.040Z,100.00
2019-01-15T03:13:03.187Z,100.00
2019-01-15T03:15:32.282Z,100.00
2019-01-15T03:18:01.348Z,100.00
2019-01-15T03:20:30.443Z,100.00
2019-01-15T03:22:59.511Z,100.00
2019-01-15T03:25:28.614Z,100.00
2019-01-15T03:27:57.686Z,100.00
2019-01-15T03:30:26.781Z,100.00
2019-01-15T03:32:55.840Z,100.00
2019-01-15T03:35:24.955Z,100.00
2019-01-15T03:37:54.032Z,100.00
2019-01-15T03:40:24.953Z,100.00
2019-01-15T03:42:54.340Z,100.00
2019-01-15T03:45:23.542Z,100.00
2019-01-15T03:47:52.592Z,100.00
2019-01-15T03:50:21.793Z,100.00
2019-01-15T03:52:50.863Z,100.00
2019-01-15T03:55:20.052Z,100.00
2019-01-15T03:57:49.134Z,100.00
2019-01-15T04:00:22.977Z,100.00
2019-01-15T04:02:52.531Z,100.00
2019-01-15T04:05:21.641Z,100.00
2019-01-15T04:07:55.236Z,100.00
2019-01-15T04:10:24.337Z,100.00
2019-01-15T04:12:53.416Z,100.00
2019-01-15T04:15:22.499Z,100.00
2019-01-15T04:17:51.598Z,100.00
2019-01-15T04:20:20.703Z,100.00
2019-01-15T04:22:49.803Z,100.00
2019-01-15T04:25:18.880Z,100.00
2019-01-15T04:27:47.987Z,100.00
2019-01-15T04:30:22.154Z,100.00
2019-01-15T04:32:51.264Z,100.00
2019-01-15T04:35:20.372Z,100.00
2019-01-15T04:37:49.485Z,100.00
2019-01-15T04:40:20.223Z,100.00
2019-01-15T04:42:49.512Z,100.00
2019-01-15T04:45:20.432Z,100.00
2019-01-15T04:47:49.538Z,100.00
2019-01-15T04:50:18.623Z,100.00
2019-01-15T04:52:54.238Z,100.00
2019-01-15T04:55:23.425Z,100.00
2019-01-15T04:57:52.543Z,100.00
2019-01-15T05:00:21.947Z,100.00
2019-01-15T05:02:51.228Z,100.00
2019-01-15T05:05:20.329Z,100.00
2019-01-15T05:07:49.435Z,100.00
2019-01-15T05:10:18.530Z,100.00
2019-01-15T05:12:47.635Z,100.00
2019-01-15T05:15:16.832Z,100.00
2019-01-15T05:17:46.039Z,100.00
2019-01-15T05:20:16.044Z,100.00
2019-01-15T05:22:45.159Z,100.00
2019-01-15T05:25:16.716Z,100.00
2019-01-15T05:27:45.851Z,100.00
2019-01-15T05:30:20.140Z,100.00
2019-01-15T05:32:49.235Z,100.00
2019-01-15T05:35:18.369Z,100.00
2019-01-15T05:37:47.491Z,100.00
2019-01-15T05:40:17.013Z,100.00
2019-01-15T05:42:46.101Z,100.00
2019-01-15T05:45:22.082Z,100.00
2019-01-15T05:47:52.630Z,100.00
2019-01-15T05:50:28.421Z,100.00
2019-01-15T05:52:57.500Z,100.00
2019-01-15T05:55:26.599Z,100.00
2019-01-15T05:57:55.684Z,100.00
2019-01-15T06:00:24.782Z,100.00
2019-01-15T06:02:53.875Z,100.00
2019-01-15T06:05:22.982Z,100.00
2019-01-15T06:07:52.071Z,100.00
2019-01-15T06:10:21.173Z,100.00
2019-01-15T06:12:50.273Z,100.00
2019-01-15T06:15:19.379Z,100.00
2019-01-15T06:17:48.467Z,100.00
2019-01-15T06:20:17.605Z,100.00
2019-01-15T06:22:46.791Z,100.00
2019-01-15T06:25:15.892Z,100.00
2019-01-15T06:27:44.972Z,100.00
2019-01-15T06:30:14.635Z,100.00
2019-01-15T06:32:43.710Z,100.00
2019-01-15T06:35:12.944Z,100.00
2019-01-15T06:37:42.020Z,100.00
2019-01-15T06:40:12.626Z,100.00
2019-01-15T06:42:41.712Z,100.00
2019-01-15T06:45:16.755Z,100.00
2019-01-15T06:47:45.832Z,100.00
2019-01-15T06:50:15.865Z,100.00
2019-01-15T06:52:45.089Z,100.00
2019-01-15T06:55:15.975Z,100.00
2019-01-15T06:57:45.081Z,100.00
2019-01-15T07:00:17.207Z,100.00
2019-01-15T07:02:46.316Z,100.00
2019-01-15T07:05:15.489Z,100.00
2019-01-15T07:07:44.605Z,100.00
2019-01-15T07:10:17.051Z,100.00
2019-01-15T07:12:46.152Z,100.00
2019-01-15T07:15:15.543Z,100.00
2019-01-15T07:17:44.653Z,100.00
2019-01-15T07:20:14.524Z,100.00
2019-01-15T07:22:43.736Z,100.00
2019-01-15T07:25:13.997Z,100.00
2019-01-15T07:27:43.107Z,100.00
2019-01-15T07:30:20.567Z,100.00
2019-01-15T07:32:49.747Z,100.00
2019-01-15T07:35:18.855Z,100.00
2019-01-15T07:37:47.963Z,100.00
2019-01-15T07:40:17.045Z,100.00
2019-01-15T07:42:46.148Z,100.00
2019-01-15T07:45:15.249Z,100.00
2019-01-15T07:47:44.352Z,100.00
2019-01-15T07:50:15.436Z,100.00
2019-01-15T07:52:44.539Z,100.00
2019-01-15T07:55:14.733Z,100.00
2019-01-15T07:57:45.272Z,100.00
2019-01-15T08:00:16.847Z,100.00
2019-01-15T08:02:45.955Z,100.00
2019-01-15T08:05:15.729Z,100.00
2019-01-15T08:07:44.932Z,100.00
2019-01-15T08:10:15.052Z,100.00
2019-01-15T08:12:44.252Z,100.00
2019-01-15T08:15:15.750Z,100.00
2019-01-15T08:17:44.910Z,100.00
2019-01-15T08:20:14.156Z,100.00
2019-01-15T08:22:43.349Z,100.00
2019-01-15T08:25:12.719Z,100.00
2019-01-15T08:27:41.806Z,100.00
2019-01-15T08:30:17.384Z,100.00
2019-01-15T08:32:46.467Z,100.00
2019-01-15T08:35:15.772Z,100.00
2019-01-15T08:37:44.876Z,100.00
2019-01-15T08:40:14.228Z,100.00
2019-01-15T08:42:43.414Z,100.00
2019-01-15T08:45:12.744Z,100.00
2019-01-15T08:47:52.561Z,100.00
2019-01-15T08:50:24.082Z,100.00
2019-01-15T08:52:53.174Z,100.00
2019-01-15T08:55:22.284Z,100.00
2019-01-15T08:57:51.363Z,100.00
2019-01-15T09:00:20.475Z,100.00
2019-01-15T09:02:49.564Z,100.00
2019-01-15T09:05:18.673Z,100.00
2019-01-15T09:07:47.765Z,100.00
2019-01-15T09:10:17.395Z,100.00
2019-01-15T09:12:46.784Z,100.00
2019-01-15T09:15:16.760Z,100.00
2019-01-15T09:17:45.860Z,100.00
2019-01-15T09:20:16.928Z,100.00
2019-01-15T09:22:46.321Z,100.00
2019-01-15T09:25:15.423Z,100.00
2019-01-15T09:27:44.512Z,100.00
2019-01-15T09:30:15.869Z,100.00
2019-01-15T09:32:45.035Z,100.00
2019-01-15T09:35:14.170Z,100.00
2019-01-15T09:37:44.174Z,100.00
2019-01-15T09:40:15.634Z,99.79
2019-01-15T09:42:44.719Z,99.15
2019-01-15T09:45:15.619Z,99.01
2019-01-15T09:48:03.575Z,98.57
2019-01-15T09:50:32.713Z,98.41
2019-01-15T09:53:02.524Z,97.82
2019-01-15T09:55:31.618Z,97.37
2019-01-15T09:58:00.699Z,97.25
2019-01-15T10:00:29.806Z,97.43
2019-01-15T10:02:58.881Z,97.57
2019-01-15T10:05:27.986Z,97.76
2019-01-15T10:07:57.071Z,97.65
2019-01-15T10:10:26.187Z,97.18
2019-01-15T10:12:55.271Z,97.01
2019-01-15T10:15:24.367Z,96.48
2019-01-15T10:17:53.463Z,95.92
2019-01-15T10:20:22.551Z,95.30
2019-01-15T10:22:51.767Z,93.81
2019-01-15T10:25:28.666Z,91.52
2019-01-15T10:27:58.554Z,90.64
2019-01-15T10:30:42.246Z,90.92
2019-01-15T10:33:24.991Z,90.09
2019-01-15T10:35:55.530Z,89.14
2019-01-15T10:38:25.559Z,91.69
2019-01-15T10:40:56.640Z,91.88
2019-01-15T10:43:26.057Z,92.46
2019-01-15T10:45:55.137Z,91.01
2019-01-15T10:48:24.234Z,90.95
2019-01-15T10:50:53.422Z,90.98
2019-01-15T10:53:22.530Z,91.17
2019-01-15T10:55:51.616Z,90.72
2019-01-15T10:58:20.815Z,91.17
2019-01-15T11:00:49.896Z,90.71
2019-01-15T11:03:18.988Z,90.32
2019-01-15T11:05:48.278Z,90.16
2019-01-15T11:08:17.385Z,90.95
2019-01-15T11:10:46.465Z,90.58
2019-01-15T11:13:15.563Z,91.08
2019-01-15T11:15:44.650Z,91.32
2019-01-15T11:18:13.763Z,91.14
2019-01-15T11:20:42.843Z,91.19
2019-01-15T11:23:11.946Z,89.54
2019-01-15T11:25:41.023Z,88.50
2019-01-15T11:28:10.128Z,89.32
2019-01-15T11:30:39.203Z,88.90
2019-01-15T11:33:08.301Z,89.04
2019-01-15T11:35:37.410Z,89.59
2019-01-15T11:38:06.534Z,90.65
2019-01-15T11:40:35.618Z,91.40
2019-01-15T11:43:04.738Z,91.85
2019-01-15T11:45:33.825Z,92.36
2019-01-15T11:48:03.020Z,92.35
2019-01-15T11:50:32.107Z,92.14
2019-01-15T11:53:01.219Z,91.69
2019-01-15T11:55:30.307Z,91.19
2019-01-15T11:57:59.406Z,90.33
2019-01-15T12:00:41.720Z,90.87
2019-01-15T12:03:29.995Z,90.58
2019-01-15T12:06:12.510Z,90.31
2019-01-15T12:08:51.414Z,89.27
2019-01-15T12:11:28.381Z,87.54
2019-01-15T12:14:22.578Z,84.91
2019-01-15T12:17:03.182Z,85.95
2019-01-15T12:19:41.889Z,85.91
2019-01-15T12:22:39.286Z,85.75
2019-01-15T12:25:32.923Z,83.49
2019-01-15T12:28:27.073Z,80.41
2019-01-15T12:31:07.295Z,80.83
2019-01-15T12:33:53.838Z,83.15
2019-01-15T12:36:41.907Z,86.12
2019-01-15T12:39:28.366Z,86.78
2019-01-15T12:42:19.428Z,87.27
2019-01-15T12:45:10.335Z,87.70
2019-01-15T12:47:48.510Z,87.92
2019-01-15T12:50:33.179Z,87.94
2019-01-15T12:53:21.811Z,88.07
2019-01-15T12:56:05.293Z,88.50
2019-01-15T12:58:56.383Z,88.18
2019-01-15T13:01:47.544Z,88.34
2019-01-15T13:04:29.333Z,88.73
2019-01-15T13:07:29.355Z,88.47
2019-01-15T13:10:17.311Z,88.83
2019-01-15T13:13:23.654Z,88.44
2019-01-15T13:16:20.618Z,88.23
2019-01-15T13:19:07.443Z,87.82
2019-01-15T13:21:50.082Z,87.63
2019-01-15T13:24:28.006Z,86.76
2019-01-15T13:27:09.201Z,87.48
2019-01-15T13:29:55.747Z,86.75
2019-01-15T13:32:42.370Z,87.07
2019-01-15T13:35:33.313Z,87.69
2019-01-15T13:38:21.359Z,87.58
2019-01-15T13:41:18.267Z,87.74
2019-01-15T13:44:15.458Z,88.06
2019-01-15T13:47:02.039Z,88.02
2019-01-15T13:49:48.922Z,88.27
2019-01-15T13:52:35.586Z,88.73
2019-01-15T13:55:17.026Z,88.86
2019-01-15T13:58:08.158Z,89.11
2019-01-15T14:00:54.676Z,88.53
2019-01-15T14:03:43.943Z,89.18
2019-01-15T14:06:35.139Z,88.95
2019-01-15T14:09:17.438Z,89.21
2019-01-15T14:11:55.089Z,88.68
2019-01-15T14:14:50.113Z,89.46
2019-01-15T14:17:53.422Z,89.32
2019-01-15T14:20:44.518Z,89.17
2019-01-15T14:23:32.566Z,89.00
2019-01-15T14:26:26.458Z,89.09
2019-01-15T14:29:17.331Z,88.96
2019-01-15T14:32:01.846Z,89.16
2019-01-15T14:34:45.622Z,89.39
2019-01-15T14:37:25.779Z,89.94
2019-01-15T14:40:16.893Z,90.16
2019-01-15T14:43:03.593Z,90.39
2019-01-15T14:45:56.564Z,90.52
2019-01-15T14:48:38.618Z,91.04
2019-01-15T14:51:17.337Z,90.86
2019-01-15T14:54:23.308Z,90.59
2019-01-15T14:57:20.450Z,90.67
2019-01-15T15:00:01.317Z,90.76
2019-01-15T15:02:49.393Z,90.88
2019-01-15T15:05:37.506Z,90.90
2019-01-15T15:08:23.998Z,91.03
2019-01-15T15:11:10.710Z,90.81
2019-01-15T15:13:58.793Z,91.27
2019-01-15T15:16:52.804Z,91.38
2019-01-15T15:19:31.261Z,91.29
2019-01-15T15:22:17.887Z,91.75
2019-01-15T15:25:13.552Z,91.96
2019-01-15T15:28:00.140Z,92.19
2019-01-15T15:30:58.288Z,92.27
2019-01-15T15:33:46.359Z,92.30
2019-01-15T15:36:40.622Z,92.44
2019-01-15T15:39:43.935Z,92.50
2019-01-15T15:42:24.077Z,92.68
2019-01-15T15:45:03.592Z,92.88
2019-01-15T15:48:06.534Z,92.97
2019-01-15T15:50:57.742Z,93.03
2019-01-15T15:53:54.934Z,93.29
2019-01-15T15:56:42.995Z,92.83
2019-01-15T15:59:40.025Z,93.15
2019-01-15T16:02:43.068Z,92.99
2019-01-15T16:05:29.868Z,92.86
2019-01-15T16:08:17.928Z,92.96
2019-01-15T16:11:06.002Z,93.09
2019-01-15T16:13:52.564Z,92.77
2019-01-15T16:16:43.671Z,92.73
2019-01-15T16:19:30.219Z,92.82
2019-01-15T16:22:21.362Z,92.75
2019-01-15T16:25:07.677Z,92.57
2019-01-15T16:27:50.047Z,92.61
2019-01-15T16:30:30.609Z,92.50
2019-01-15T16:33:18.664Z,92.54
2019-01-15T16:36:12.584Z,92.56
2019-01-15T16:38:58.531Z,92.87
2019-01-15T16:41:45.078Z,92.95
2019-01-15T16:44:31.946Z,93.07
2019-01-15T16:47:23.103Z,93.21
2019-01-15T16:50:12.884Z,93.21
2019-01-15T16:52:59.386Z,93.47
2019-01-15T16:55:47.470Z,93.40
2019-01-15T16:58:33.311Z,93.28
2019-01-15T17:01:20.062Z,93.25
2019-01-15T17:04:08.937Z,93.33
2019-01-15T17:06:55.705Z,92.87
2019-01-15T17:09:47.422Z,91.84
2019-01-15T17:12:33.942Z,91.79
2019-01-15T17:15:20.500Z,91.97
2019-01-15T17:18:02.631Z,92.57
2019-01-15T17:20:59.562Z,92.66
2019-01-15T17:23:50.378Z,92.80
2019-01-15T17:26:41.539Z,92.86
2019-01-15T17:29:28.050Z,92.56
2019-01-15T17:32:21.970Z,92.63
2019-01-15T17:35:11.867Z,92.84
2019-01-15T17:37:58.438Z,92.54
2019-01-15T17:40:49.654Z,92.78
2019-01-15T17:43:43.274Z,92.13
2019-01-15T17:46:28.463Z,92.25
2019-01-15T17:49:21.156Z,91.89
2019-01-15T17:52:07.910Z,91.91
2019-01-15T17:55:02.062Z,92.09
2019-01-15T17:57:48.831Z,92.79
2019-01-15T18:00:46.096Z,92.23
2019-01-15T18:03:40.201Z,93.13
2019-01-15T18:06:26.630Z,93.67
2019-01-15T18:09:17.673Z,93.15
2019-01-15T18:12:05.754Z,93.50
2019-01-15T18:14:52.334Z,94.00
2019-01-15T18:17:52.866Z,93.90
2019-01-15T18:20:49.906Z,93.98
2019-01-15T18:23:30.574Z,94.03
2019-01-15T18:26:31.218Z,93.81
2019-01-15T18:29:34.130Z,94.14
2019-01-15T18:32:25.283Z,94.09
2019-01-15T18:35:16.226Z,94.33
2019-01-15T18:38:10.802Z,93.88
2019-01-15T18:40:58.858Z,93.71
2019-01-15T18:43:56.192Z,94.81
2019-01-15T18:46:55.929Z,95.06
2019-01-15T18:49:45.699Z,95.23
2019-01-15T18:52:33.818Z,95.54
2019-01-15T18:55:19.457Z,96.15
2019-01-15T18:58:12.542Z,96.82
2019-01-15T19:00:54.196Z,97.01
2019-01-15T19:03:32.810Z,97.79
2019-01-15T19:06:37.558Z,98.04
2019-01-15T19:09:23.037Z,98.55
2019-01-15T19:12:03.786Z,99.12
2019-01-15T19:14:52.347Z,99.47
2019-01-15T19:17:58.812Z,99.70
2019-01-15T19:20:44.959Z,100.00
2019-01-15T19:23:31.502Z,100.00
2019-01-15T19:26:24.527Z,100.00
2019-01-15T19:29:11.971Z,100.00
2019-01-15T19:31:59.517Z,100.00
2019-01-15T19:34:46.235Z,100.00
2019-01-15T19:37:46.507Z,100.00
2019-01-15T19:40:40.561Z,100.00
2019-01-15T19:43:28.672Z,100.00
2019-01-15T19:46:15.188Z,100.00
2019-01-15T19:49:04.410Z,100.00
2019-01-15T19:52:04.656Z,100.00
2019-01-15T19:54:52.054Z,100.00
2019-01-15T19:57:39.489Z,100.00
2019-01-15T20:00:31.495Z,100.00
2019-01-15T20:03:23.607Z,100.00
2019-01-15T20:06:10.439Z,100.00
2019-01-15T20:08:57.178Z,100.00
2019-01-15T20:11:45.265Z,100.00
2019-01-15T20:14:31.785Z,100.00
2019-01-15T20:17:25.987Z,100.00
2019-01-15T20:20:20.224Z,100.00
2019-01-15T20:23:14.143Z,100.00
2019-01-15T20:26:17.499Z,100.00
2019-01-15T20:29:12.748Z,100.00
2019-01-15T20:32:01.319Z,100.00
2019-01-15T20:34:49.433Z,100.00
2019-01-15T20:37:49.731Z,100.00
2019-01-15T20:40:35.066Z,100.00
2019-01-15T20:43:21.829Z,100.00
2019-01-15T20:46:08.378Z,100.00
2019-01-15T20:48:55.098Z,100.00
2019-01-15T20:51:36.831Z,100.00
2019-01-15T20:54:13.976Z,100.00
2019-01-15T20:57:00.543Z,100.00
2019-01-15T21:00:00.512Z,100.00
2019-01-15T21:02:47.243Z,100.00
2019-01-15T21:05:34.107Z,100.00
2019-01-15T21:08:12.680Z,100.00
2019-01-15T21:10:59.293Z,100.00
2019-01-15T21:16:42.604Z,100.00
2019-01-15T21:19:42.998Z,100.00
2019-01-15T21:22:29.791Z,100.00
2019-01-15T21:25:16.368Z,100.00
2019-01-15T21:28:03.232Z,100.00
2019-01-15T21:30:50.559Z,100.00
2019-01-15T21:33:37.330Z,100.00
2019-01-15T21:36:35.135Z,100.00
2019-01-15T21:39:18.999Z,100.00
2019-01-15T21:42:05.716Z,100.00
2019-01-15T21:44:52.516Z,100.00
2019-01-15T21:47:40.110Z,100.00
2019-01-15T21:50:30.800Z,100.00
2019-01-15T21:53:17.396Z,100.00
2019-01-15T21:56:11.356Z,100.00
2019-01-15T21:58:59.444Z,100.00
2019-01-15T22:01:47.551Z,100.00
2019-01-15T22:04:46.669Z,100.00
2019-01-15T22:07:33.340Z,100.00
2019-01-15T22:10:12.729Z,100.00
2019-01-15T22:13:06.856Z,100.00
2019-01-15T22:15:53.421Z,100.00
2019-01-15T22:18:40.719Z,100.00
2019-01-15T22:21:20.688Z,100.00
2019-01-15T22:24:07.584Z,100.00
2019-01-15T22:27:07.912Z,100.00
2019-01-15T22:29:59.171Z,100.00
2019-01-15T22:32:45.997Z,100.00
2019-01-15T22:35:41.217Z,100.00
2019-01-15T22:38:35.244Z,100.00
2019-01-15T22:41:31.976Z,100.00
2019-01-15T22:44:25.907Z,100.00
2019-01-15T22:47:08.484Z,100.00
2019-01-15T22:50:02.645Z,100.00
2019-01-15T22:52:53.575Z,100.00
2019-01-15T22:55:37.648Z,100.00
2019-01-15T22:58:24.446Z,100.00
2019-01-15T23:01:13.158Z,100.00
2019-01-15T23:04:00.047Z,100.00
2019-01-15T23:06:49.111Z,100.00
2019-01-15T23:09:35.924Z,100.00
2019-01-15T23:12:22.569Z,100.00
2019-01-15T23:15:13.875Z,100.00
2019-01-15T23:18:02.454Z,100.00
2019-01-15T23:20:49.436Z,100.00
2019-01-15T23:23:38.799Z,100.00
2019-01-15T23:26:32.729Z,100.00
2019-01-15T23:29:15.551Z,100.00
2019-01-15T23:32:03.648Z,100.00
2019-01-15T23:34:54.512Z,100.00
2019-01-15T23:37:34.213Z,100.00
2019-01-15T23:40:31.244Z,100.00
2019-01-15T23:43:28.468Z,100.00
2019-01-15T23:46:22.325Z,100.00
2019-01-15T23:49:16.207Z,100.00
2019-01-15T23:52:03.018Z,100.00
2019-01-15T23:54:49.601Z,100.00
2019-01-15T23:57:36.146Z,100.00
